sensor_id;sensor_type;location;lat;lon;timestamp;temperature;humidity
62809;DHT22;48848;39.002;-94.584;2022-10-17T00:00:35;19.80;43.10
62809;DHT22;48848;39.002;-94.584;2022-10-17T00:03:01;19.90;43.20
62809;DHT22;48848;39.002;-94.584;2022-10-17T00:05:28;19.80;43.20
62809;DHT22;48848;39.002;-94.584;2022-10-17T00:07:54;19.80;43.20
62809;DHT22;48848;39.002;-94.584;2022-10-17T00:10:21;19.80;43.20
62809;DHT22;48848;39.002;-94.584;2022-10-17T00:12:49;19.90;43.20
62809;DHT22;48848;39.002;-94.584;2022-10-17T00:15:17;19.80;43.00
62809;DHT22;48848;39.002;-94.584;2022-10-17T00:17:44;19.90;43.30
62809;DHT22;48848;39.002;-94.584;2022-10-17T00:20:11;19.80;43.60
62809;DHT22;48848;39.002;-94.584;2022-10-17T00:22:37;19.80;44.00
62809;DHT22;48848;39.002;-94.584;2022-10-17T00:25:04;19.70;43.60
62809;DHT22;48848;39.002;-94.584;2022-10-17T00:27:33;19.70;43.60
62809;DHT22;48848;39.002;-94.584;2022-10-17T00:29:59;19.60;43.80
62809;DHT22;48848;39.002;-94.584;2022-10-17T00:32:25;19.70;44.40
62809;DHT22;48848;39.002;-94.584;2022-10-17T00:34:51;19.60;43.70
62809;DHT22;48848;39.002;-94.584;2022-10-17T00:37:18;19.60;44.00
62809;DHT22;48848;39.002;-94.584;2022-10-17T00:39:44;19.60;44.00
62809;DHT22;48848;39.002;-94.584;2022-10-17T00:42:12;19.50;44.10
62809;DHT22;48848;39.002;-94.584;2022-10-17T00:47:14;19.50;44.00
62809;DHT22;48848;39.002;-94.584;2022-10-17T00:49:41;19.50;44.20
62809;DHT22;48848;39.002;-94.584;2022-10-17T00:52:18;19.50;44.20
62809;DHT22;48848;39.002;-94.584;2022-10-17T00:54:50;19.40;44.00
62809;DHT22;48848;39.002;-94.584;2022-10-17T00:57:19;19.40;44.10
62809;DHT22;48848;39.002;-94.584;2022-10-17T00:59:50;19.40;44.10
62809;DHT22;48848;39.002;-94.584;2022-10-17T01:02:20;19.40;44.00
62809;DHT22;48848;39.002;-94.584;2022-10-17T01:04:49;19.40;44.40
62809;DHT22;48848;39.002;-94.584;2022-10-17T01:07:16;19.40;44.40
62809;DHT22;48848;39.002;-94.584;2022-10-17T01:09:44;19.40;44.20
62809;DHT22;48848;39.002;-94.584;2022-10-17T01:15:21;19.30;44.10
62809;DHT22;48848;39.002;-94.584;2022-10-17T01:32:54;19.20;44.00
62809;DHT22;48848;39.002;-94.584;2022-10-17T01:37:52;19.20;43.80
62809;DHT22;48848;39.002;-94.584;2022-10-17T01:40:26;19.20;44.10
62809;DHT22;48848;39.002;-94.584;2022-10-17T01:43:06;19.20;44.00
62809;DHT22;48848;39.002;-94.584;2022-10-17T01:45:45;19.10;43.90
62809;DHT22;48848;39.002;-94.584;2022-10-17T01:48:22;19.20;44.00
62809;DHT22;48848;39.002;-94.584;2022-10-17T01:51:08;19.10;43.80
62809;DHT22;48848;39.002;-94.584;2022-10-17T01:53:40;19.10;44.70
62809;DHT22;48848;39.002;-94.584;2022-10-17T01:56:09;19.10;43.90
62809;DHT22;48848;39.002;-94.584;2022-10-17T01:58:42;19.10;43.70
62809;DHT22;48848;39.002;-94.584;2022-10-17T02:01:11;19.10;43.90
62809;DHT22;48848;39.002;-94.584;2022-10-17T02:03:40;19.00;43.70
62809;DHT22;48848;39.002;-94.584;2022-10-17T02:06:08;19.10;42.40
62809;DHT22;48848;39.002;-94.584;2022-10-17T02:08:46;19.00;43.00
62809;DHT22;48848;39.002;-94.584;2022-10-17T02:11:20;19.00;43.40
62809;DHT22;48848;39.002;-94.584;2022-10-17T02:19:31;19.00;43.60
62809;DHT22;48848;39.002;-94.584;2022-10-17T02:25:08;19.00;43.40
62809;DHT22;48848;39.002;-94.584;2022-10-17T02:30:11;19.00;43.70
62809;DHT22;48848;39.002;-94.584;2022-10-17T02:33:10;19.00;44.00
62809;DHT22;48848;39.002;-94.584;2022-10-17T02:35:44;19.00;44.10
62809;DHT22;48848;39.002;-94.584;2022-10-17T02:38:13;19.00;44.00
62809;DHT22;48848;39.002;-94.584;2022-10-17T02:40:40;18.90;43.80
62809;DHT22;48848;39.002;-94.584;2022-10-17T02:43:07;18.90;44.00
62809;DHT22;48848;39.002;-94.584;2022-10-17T02:45:35;18.90;44.40
62809;DHT22;48848;39.002;-94.584;2022-10-17T02:48:15;18.90;44.30
62809;DHT22;48848;39.002;-94.584;2022-10-17T02:56:15;18.90;44.70
62809;DHT22;48848;39.002;-94.584;2022-10-17T02:58:49;18.80;44.30
62809;DHT22;48848;39.002;-94.584;2022-10-17T03:01:17;18.80;44.00
62809;DHT22;48848;39.002;-94.584;2022-10-17T03:03:44;18.80;44.10
62809;DHT22;48848;39.002;-94.584;2022-10-17T03:06:10;18.80;43.90
62809;DHT22;48848;39.002;-94.584;2022-10-17T03:08:37;18.80;44.10
62809;DHT22;48848;39.002;-94.584;2022-10-17T03:11:03;18.80;44.20
62809;DHT22;48848;39.002;-94.584;2022-10-17T03:13:30;18.80;43.90
62809;DHT22;48848;39.002;-94.584;2022-10-17T03:15:56;18.70;43.70
62809;DHT22;48848;39.002;-94.584;2022-10-17T03:18:22;18.70;43.80
62809;DHT22;48848;39.002;-94.584;2022-10-17T03:20:49;18.70;44.50
62809;DHT22;48848;39.002;-94.584;2022-10-17T03:23:15;18.70;44.40
62809;DHT22;48848;39.002;-94.584;2022-10-17T03:25:41;18.60;44.50
62809;DHT22;48848;39.002;-94.584;2022-10-17T03:28:09;18.60;44.80
62809;DHT22;48848;39.002;-94.584;2022-10-17T03:30:37;18.60;44.60
62809;DHT22;48848;39.002;-94.584;2022-10-17T03:33:04;18.60;44.60
62809;DHT22;48848;39.002;-94.584;2022-10-17T03:35:30;18.50;43.90
62809;DHT22;48848;39.002;-94.584;2022-10-17T03:37:56;18.60;43.80
62809;DHT22;48848;39.002;-94.584;2022-10-17T03:40:22;18.50;44.40
62809;DHT22;48848;39.002;-94.584;2022-10-17T03:42:49;18.50;44.50
62809;DHT22;48848;39.002;-94.584;2022-10-17T03:45:15;18.50;43.90
62809;DHT22;48848;39.002;-94.584;2022-10-17T03:47:41;18.50;44.50
62809;DHT22;48848;39.002;-94.584;2022-10-17T03:50:08;18.50;44.20
62809;DHT22;48848;39.002;-94.584;2022-10-17T03:52:34;18.40;44.00
62809;DHT22;48848;39.002;-94.584;2022-10-17T03:55:00;18.40;44.30
62809;DHT22;48848;39.002;-94.584;2022-10-17T03:57:26;18.40;43.80
62809;DHT22;48848;39.002;-94.584;2022-10-17T03:59:52;18.40;44.30
62809;DHT22;48848;39.002;-94.584;2022-10-17T04:02:18;18.40;44.60
62809;DHT22;48848;39.002;-94.584;2022-10-17T04:04:45;18.40;44.40
62809;DHT22;48848;39.002;-94.584;2022-10-17T04:07:11;18.30;44.60
62809;DHT22;48848;39.002;-94.584;2022-10-17T04:09:37;18.30;44.40
62809;DHT22;48848;39.002;-94.584;2022-10-17T04:12:03;18.30;44.90
62809;DHT22;48848;39.002;-94.584;2022-10-17T04:14:30;18.30;44.70
62809;DHT22;48848;39.002;-94.584;2022-10-17T04:16:56;18.20;44.40
62809;DHT22;48848;39.002;-94.584;2022-10-17T04:19:22;18.20;44.00
62809;DHT22;48848;39.002;-94.584;2022-10-17T04:21:48;18.20;44.20
62809;DHT22;48848;39.002;-94.584;2022-10-17T04:24:14;18.20;44.70
62809;DHT22;48848;39.002;-94.584;2022-10-17T04:26:41;18.20;44.50
62809;DHT22;48848;39.002;-94.584;2022-10-17T04:29:07;18.20;44.50
62809;DHT22;48848;39.002;-94.584;2022-10-17T04:31:33;18.20;44.30
62809;DHT22;48848;39.002;-94.584;2022-10-17T04:33:59;18.20;45.10
62809;DHT22;48848;39.002;-94.584;2022-10-17T04:36:25;18.10;45.30
62809;DHT22;48848;39.002;-94.584;2022-10-17T04:38:52;18.10;45.00
62809;DHT22;48848;39.002;-94.584;2022-10-17T04:41:18;18.10;44.90
62809;DHT22;48848;39.002;-94.584;2022-10-17T04:43:44;18.00;46.40
62809;DHT22;48848;39.002;-94.584;2022-10-17T04:46:13;18.00;45.50
62809;DHT22;48848;39.002;-94.584;2022-10-17T04:48:40;18.00;44.70
62809;DHT22;48848;39.002;-94.584;2022-10-17T04:51:11;18.00;45.40
62809;DHT22;48848;39.002;-94.584;2022-10-17T04:53:38;18.00;45.00
62809;DHT22;48848;39.002;-94.584;2022-10-17T04:58:35;18.00;46.40
62809;DHT22;48848;39.002;-94.584;2022-10-17T05:01:11;18.00;46.40
62809;DHT22;48848;39.002;-94.584;2022-10-17T05:03:38;17.90;45.80
62809;DHT22;48848;39.002;-94.584;2022-10-17T05:06:05;17.90;46.10
62809;DHT22;48848;39.002;-94.584;2022-10-17T05:08:32;17.80;46.00
62809;DHT22;48848;39.002;-94.584;2022-10-17T05:10:59;17.80;45.70
62809;DHT22;48848;39.002;-94.584;2022-10-17T05:13:25;17.80;46.10
62809;DHT22;48848;39.002;-94.584;2022-10-17T05:15:51;17.80;45.60
62809;DHT22;48848;39.002;-94.584;2022-10-17T05:18:17;17.80;46.30
62809;DHT22;48848;39.002;-94.584;2022-10-17T05:20:44;17.80;45.80
62809;DHT22;48848;39.002;-94.584;2022-10-17T05:23:10;17.70;46.10
62809;DHT22;48848;39.002;-94.584;2022-10-17T05:25:36;17.80;46.80
62809;DHT22;48848;39.002;-94.584;2022-10-17T05:28:02;17.80;46.70
62809;DHT22;48848;39.002;-94.584;2022-10-17T05:30:28;17.70;47.60
62809;DHT22;48848;39.002;-94.584;2022-10-17T05:32:55;17.70;46.60
62809;DHT22;48848;39.002;-94.584;2022-10-17T05:35:21;17.70;46.60
62809;DHT22;48848;39.002;-94.584;2022-10-17T05:37:48;17.70;46.60
62809;DHT22;48848;39.002;-94.584;2022-10-17T05:40:14;17.60;46.70
62809;DHT22;48848;39.002;-94.584;2022-10-17T05:42:45;17.60;46.80
62809;DHT22;48848;39.002;-94.584;2022-10-17T05:45:12;17.60;47.00
62809;DHT22;48848;39.002;-94.584;2022-10-17T05:47:39;17.60;47.00
62809;DHT22;48848;39.002;-94.584;2022-10-17T05:50:06;17.60;46.80
62809;DHT22;48848;39.002;-94.584;2022-10-17T05:52:33;17.60;46.90
62809;DHT22;48848;39.002;-94.584;2022-10-17T05:54:59;17.60;47.00
62809;DHT22;48848;39.002;-94.584;2022-10-17T05:57:26;17.50;47.00
62809;DHT22;48848;39.002;-94.584;2022-10-17T05:59:52;17.50;47.00
62809;DHT22;48848;39.002;-94.584;2022-10-17T06:02:18;17.50;47.00
62809;DHT22;48848;39.002;-94.584;2022-10-17T06:04:44;17.50;46.90
62809;DHT22;48848;39.002;-94.584;2022-10-17T06:07:13;17.50;46.60
62809;DHT22;48848;39.002;-94.584;2022-10-17T06:09:39;17.50;46.90
62809;DHT22;48848;39.002;-94.584;2022-10-17T06:12:06;17.50;47.00
62809;DHT22;48848;39.002;-94.584;2022-10-17T06:14:33;17.40;46.90
62809;DHT22;48848;39.002;-94.584;2022-10-17T06:16:59;17.40;46.90
62809;DHT22;48848;39.002;-94.584;2022-10-17T06:19:26;17.40;46.80
62809;DHT22;48848;39.002;-94.584;2022-10-17T06:21:52;17.40;46.70
62809;DHT22;48848;39.002;-94.584;2022-10-17T06:24:18;17.40;46.80
62809;DHT22;48848;39.002;-94.584;2022-10-17T06:26:44;17.40;46.60
62809;DHT22;48848;39.002;-94.584;2022-10-17T06:29:12;17.40;46.40
62809;DHT22;48848;39.002;-94.584;2022-10-17T06:31:38;17.40;46.90
62809;DHT22;48848;39.002;-94.584;2022-10-17T06:34:04;17.30;46.70
62809;DHT22;48848;39.002;-94.584;2022-10-17T06:36:30;17.30;46.70
62809;DHT22;48848;39.002;-94.584;2022-10-17T06:38:56;17.30;46.70
62809;DHT22;48848;39.002;-94.584;2022-10-17T06:41:23;17.30;47.00
62809;DHT22;48848;39.002;-94.584;2022-10-17T06:43:50;17.30;47.10
62809;DHT22;48848;39.002;-94.584;2022-10-17T06:46:18;17.20;47.10
62809;DHT22;48848;39.002;-94.584;2022-10-17T06:48:44;17.20;46.90
62809;DHT22;48848;39.002;-94.584;2022-10-17T06:51:11;17.20;47.20
62809;DHT22;48848;39.002;-94.584;2022-10-17T06:53:39;17.20;46.60
62809;DHT22;48848;39.002;-94.584;2022-10-17T06:56:06;17.20;46.70
62809;DHT22;48848;39.002;-94.584;2022-10-17T06:58:35;17.20;45.90
62809;DHT22;48848;39.002;-94.584;2022-10-17T07:01:06;17.20;46.80
62809;DHT22;48848;39.002;-94.584;2022-10-17T07:03:32;17.20;46.90
62809;DHT22;48848;39.002;-94.584;2022-10-17T07:05:58;17.10;46.70
62809;DHT22;48848;39.002;-94.584;2022-10-17T07:08:25;17.10;47.10
62809;DHT22;48848;39.002;-94.584;2022-10-17T07:10:51;17.00;47.20
62809;DHT22;48848;39.002;-94.584;2022-10-17T07:13:18;17.00;47.20
62809;DHT22;48848;39.002;-94.584;2022-10-17T07:15:45;17.00;47.30
62809;DHT22;48848;39.002;-94.584;2022-10-17T07:18:11;17.00;46.90
62809;DHT22;48848;39.002;-94.584;2022-10-17T07:20:38;17.00;46.90
62809;DHT22;48848;39.002;-94.584;2022-10-17T07:23:05;17.00;46.70
62809;DHT22;48848;39.002;-94.584;2022-10-17T07:25:32;17.00;46.40
62809;DHT22;48848;39.002;-94.584;2022-10-17T07:27:58;17.00;46.00
62809;DHT22;48848;39.002;-94.584;2022-10-17T07:30:24;17.00;46.50
62809;DHT22;48848;39.002;-94.584;2022-10-17T07:32:54;17.00;46.20
62809;DHT22;48848;39.002;-94.584;2022-10-17T07:35:20;17.00;47.00
62809;DHT22;48848;39.002;-94.584;2022-10-17T07:37:46;16.90;46.80
62809;DHT22;48848;39.002;-94.584;2022-10-17T07:40:13;16.90;48.10
62809;DHT22;48848;39.002;-94.584;2022-10-17T07:42:39;16.90;47.00
62809;DHT22;48848;39.002;-94.584;2022-10-17T07:45:06;16.90;47.30
62809;DHT22;48848;39.002;-94.584;2022-10-17T07:47:32;16.90;46.90
62809;DHT22;48848;39.002;-94.584;2022-10-17T07:50:01;16.80;46.90
62809;DHT22;48848;39.002;-94.584;2022-10-17T07:52:27;16.80;46.10
62809;DHT22;48848;39.002;-94.584;2022-10-17T07:54:53;16.80;46.60
62809;DHT22;48848;39.002;-94.584;2022-10-17T07:57:20;16.80;45.70
62809;DHT22;48848;39.002;-94.584;2022-10-17T07:59:46;16.80;45.70
62809;DHT22;48848;39.002;-94.584;2022-10-17T08:02:26;16.80;45.40
62809;DHT22;48848;39.002;-94.584;2022-10-17T08:04:53;16.80;45.70
62809;DHT22;48848;39.002;-94.584;2022-10-17T08:07:20;16.80;46.20
62809;DHT22;48848;39.002;-94.584;2022-10-17T08:09:47;16.70;48.00
62809;DHT22;48848;39.002;-94.584;2022-10-17T08:12:13;16.70;46.00
62809;DHT22;48848;39.002;-94.584;2022-10-17T08:14:40;16.70;47.40
62809;DHT22;48848;39.002;-94.584;2022-10-17T08:17:07;16.60;47.60
62809;DHT22;48848;39.002;-94.584;2022-10-17T08:19:36;16.60;46.30
62809;DHT22;48848;39.002;-94.584;2022-10-17T08:22:02;16.60;45.50
62809;DHT22;48848;39.002;-94.584;2022-10-17T08:24:28;16.60;45.00
62809;DHT22;48848;39.002;-94.584;2022-10-17T08:26:54;16.60;45.70
62809;DHT22;48848;39.002;-94.584;2022-10-17T08:29:23;16.60;45.80
62809;DHT22;48848;39.002;-94.584;2022-10-17T08:31:49;16.60;45.30
62809;DHT22;48848;39.002;-94.584;2022-10-17T08:34:16;16.60;45.30
62809;DHT22;48848;39.002;-94.584;2022-10-17T08:36:42;16.60;45.50
62809;DHT22;48848;39.002;-94.584;2022-10-17T08:39:08;16.60;45.70
62809;DHT22;48848;39.002;-94.584;2022-10-17T08:41:47;16.50;45.60
62809;DHT22;48848;39.002;-94.584;2022-10-17T08:46:43;16.50;45.50
62809;DHT22;48848;39.002;-94.584;2022-10-17T08:49:22;16.40;45.80
62809;DHT22;48848;39.002;-94.584;2022-10-17T08:51:57;16.40;44.80
62809;DHT22;48848;39.002;-94.584;2022-10-17T08:54:44;16.40;45.50
62809;DHT22;48848;39.002;-94.584;2022-10-17T08:57:13;16.40;44.60
62809;DHT22;48848;39.002;-94.584;2022-10-17T08:59:41;16.30;45.10
62809;DHT22;48848;39.002;-94.584;2022-10-17T09:02:34;16.30;45.40
62809;DHT22;48848;39.002;-94.584;2022-10-17T09:05:20;16.30;45.40
62809;DHT22;48848;39.002;-94.584;2022-10-17T09:13:24;16.30;45.40
62809;DHT22;48848;39.002;-94.584;2022-10-17T09:15:59;16.20;45.00
62809;DHT22;48848;39.002;-94.584;2022-10-17T09:18:36;16.20;45.20
62809;DHT22;48848;39.002;-94.584;2022-10-17T09:21:44;16.20;45.50
62809;DHT22;48848;39.002;-94.584;2022-10-17T09:24:14;16.20;44.80
62809;DHT22;48848;39.002;-94.584;2022-10-17T09:26:43;16.10;45.20
62809;DHT22;48848;39.002;-94.584;2022-10-17T09:29:23;16.10;45.40
62809;DHT22;48848;39.002;-94.584;2022-10-17T09:32:10;16.10;45.50
62809;DHT22;48848;39.002;-94.584;2022-10-17T09:34:38;16.10;45.30
62809;DHT22;48848;39.002;-94.584;2022-10-17T09:37:11;16.00;44.90
62809;DHT22;48848;39.002;-94.584;2022-10-17T09:39:39;16.00;45.30
62809;DHT22;48848;39.002;-94.584;2022-10-17T09:42:11;16.00;45.30
62809;DHT22;48848;39.002;-94.584;2022-10-17T09:44:51;16.00;45.40
62809;DHT22;48848;39.002;-94.584;2022-10-17T09:49:55;15.90;45.20
62809;DHT22;48848;39.002;-94.584;2022-10-17T09:52:35;16.00;45.40
62809;DHT22;48848;39.002;-94.584;2022-10-17T09:55:14;15.90;45.20
62809;DHT22;48848;39.002;-94.584;2022-10-17T09:58:02;15.90;45.40
62809;DHT22;48848;39.002;-94.584;2022-10-17T10:03:23;15.90;45.10
62809;DHT22;48848;39.002;-94.584;2022-10-17T10:08:33;15.80;45.50
62809;DHT22;48848;39.002;-94.584;2022-10-17T10:11:05;15.80;45.30
62809;DHT22;48848;39.002;-94.584;2022-10-17T10:13:33;15.80;44.70
62809;DHT22;48848;39.002;-94.584;2022-10-17T10:18:44;15.70;45.60
62809;DHT22;48848;39.002;-94.584;2022-10-17T10:24:02;15.60;45.90
62809;DHT22;48848;39.002;-94.584;2022-10-17T10:26:34;15.60;45.60
62809;DHT22;48848;39.002;-94.584;2022-10-17T10:29:34;15.60;45.40
62809;DHT22;48848;39.002;-94.584;2022-10-17T10:32:11;15.60;45.60
62809;DHT22;48848;39.002;-94.584;2022-10-17T10:34:53;15.50;46.00
62809;DHT22;48848;39.002;-94.584;2022-10-17T10:39:48;15.50;45.50
62809;DHT22;48848;39.002;-94.584;2022-10-17T10:42:34;15.50;45.70
62809;DHT22;48848;39.002;-94.584;2022-10-17T10:45:18;15.50;45.80
62809;DHT22;48848;39.002;-94.584;2022-10-17T10:48:01;15.40;45.90
62809;DHT22;48848;39.002;-94.584;2022-10-17T10:50:32;15.40;46.00
62809;DHT22;48848;39.002;-94.584;2022-10-17T10:55:58;15.40;46.00
62809;DHT22;48848;39.002;-94.584;2022-10-17T11:01:04;15.30;46.30
62809;DHT22;48848;39.002;-94.584;2022-10-17T11:03:35;15.30;46.30
62809;DHT22;48848;39.002;-94.584;2022-10-17T11:06:12;15.30;46.00
62809;DHT22;48848;39.002;-94.584;2022-10-17T11:11:32;15.20;46.00
62809;DHT22;48848;39.002;-94.584;2022-10-17T11:14:12;15.20;46.00
62809;DHT22;48848;39.002;-94.584;2022-10-17T11:16:48;15.20;46.10
62809;DHT22;48848;39.002;-94.584;2022-10-17T11:19:24;15.20;46.10
62809;DHT22;48848;39.002;-94.584;2022-10-17T11:24:57;15.10;46.20
62809;DHT22;48848;39.002;-94.584;2022-10-17T11:27:27;15.10;46.20
62809;DHT22;48848;39.002;-94.584;2022-10-17T11:29:55;15.10;45.90
62809;DHT22;48848;39.002;-94.584;2022-10-17T11:32:38;15.10;46.10
62809;DHT22;48848;39.002;-94.584;2022-10-17T11:35:37;15.10;46.10
62809;DHT22;48848;39.002;-94.584;2022-10-17T11:41:14;15.00;46.10
62809;DHT22;48848;39.002;-94.584;2022-10-17T11:44:07;15.00;46.10
62809;DHT22;48848;39.002;-94.584;2022-10-17T11:46:36;15.00;46.30
62809;DHT22;48848;39.002;-94.584;2022-10-17T11:49:14;14.90;46.40
62809;DHT22;48848;39.002;-94.584;2022-10-17T11:51:46;14.90;46.50
62809;DHT22;48848;39.002;-94.584;2022-10-17T11:56:52;14.90;46.80
62809;DHT22;48848;39.002;-94.584;2022-10-17T12:01:57;14.80;46.00
62809;DHT22;48848;39.002;-94.584;2022-10-17T12:07:20;14.80;46.60
62809;DHT22;48848;39.002;-94.584;2022-10-17T12:10:14;14.70;46.40
62809;DHT22;48848;39.002;-94.584;2022-10-17T12:12:41;14.70;46.30
62809;DHT22;48848;39.002;-94.584;2022-10-17T12:18:02;14.60;46.70
62809;DHT22;48848;39.002;-94.584;2022-10-17T12:20:34;14.60;46.90
62809;DHT22;48848;39.002;-94.584;2022-10-17T12:23:02;14.60;47.00
62809;DHT22;48848;39.002;-94.584;2022-10-17T12:25:32;14.60;47.20
62809;DHT22;48848;39.002;-94.584;2022-10-17T12:38:45;14.50;47.20
62809;DHT22;48848;39.002;-94.584;2022-10-17T12:41:12;14.50;47.30
62809;DHT22;48848;39.002;-94.584;2022-10-17T12:43:48;14.40;47.00
62809;DHT22;48848;39.002;-94.584;2022-10-17T12:54:38;14.30;48.10
62809;DHT22;48848;39.002;-94.584;2022-10-17T12:58:00;14.20;48.60
62809;DHT22;48848;39.002;-94.584;2022-10-17T13:00:45;14.20;48.70
62809;DHT22;48848;39.002;-94.584;2022-10-17T13:02:53;14.20;48.30
62809;DHT22;48848;39.002;-94.584;2022-10-17T13:05:32;14.10;48.90
62809;DHT22;48848;39.002;-94.584;2022-10-17T13:08:02;14.10;48.50
62809;DHT22;48848;39.002;-94.584;2022-10-17T13:10:34;14.10;49.00
62809;DHT22;48848;39.002;-94.584;2022-10-17T13:13:24;14.10;49.70
62809;DHT22;48848;39.002;-94.584;2022-10-17T13:15:53;14.10;49.70
62809;DHT22;48848;39.002;-94.584;2022-10-17T13:18:26;14.00;49.70
62809;DHT22;48848;39.002;-94.584;2022-10-17T13:21:04;14.00;49.70
62809;DHT22;48848;39.002;-94.584;2022-10-17T13:23:36;14.00;49.40
62809;DHT22;48848;39.002;-94.584;2022-10-17T13:26:26;13.90;49.60
62809;DHT22;48848;39.002;-94.584;2022-10-17T13:29:09;13.90;49.80
62809;DHT22;48848;39.002;-94.584;2022-10-17T13:31:43;13.90;49.40
62809;DHT22;48848;39.002;-94.584;2022-10-17T13:34:22;13.90;49.60
62809;DHT22;48848;39.002;-94.584;2022-10-17T13:36:57;13.90;48.90
62809;DHT22;48848;39.002;-94.584;2022-10-17T13:39:26;13.80;49.30
62809;DHT22;48848;39.002;-94.584;2022-10-17T13:41:54;13.90;49.60
62809;DHT22;48848;39.002;-94.584;2022-10-17T13:44:23;14.00;51.30
62809;DHT22;48848;39.002;-94.584;2022-10-17T13:46:51;14.00;50.20
62809;DHT22;48848;39.002;-94.584;2022-10-17T13:49:26;13.90;49.60
62809;DHT22;48848;39.002;-94.584;2022-10-17T13:51:55;13.90;49.00
62809;DHT22;48848;39.002;-94.584;2022-10-17T13:54:39;13.90;49.40
62809;DHT22;48848;39.002;-94.584;2022-10-17T13:57:17;13.80;49.40
62809;DHT22;48848;39.002;-94.584;2022-10-17T13:59:45;13.80;49.80
62809;DHT22;48848;39.002;-94.584;2022-10-17T14:02:18;13.80;49.20
62809;DHT22;48848;39.002;-94.584;2022-10-17T14:04:45;13.80;49.00
62809;DHT22;48848;39.002;-94.584;2022-10-17T14:08:11;13.80;49.10
62809;DHT22;48848;39.002;-94.584;2022-10-17T14:10:35;13.80;49.10
62809;DHT22;48848;39.002;-94.584;2022-10-17T14:13:03;13.70;48.50
62809;DHT22;48848;39.002;-94.584;2022-10-17T14:15:34;13.70;49.20
62809;DHT22;48848;39.002;-94.584;2022-10-17T14:18:06;13.70;49.20
62809;DHT22;48848;39.002;-94.584;2022-10-17T14:20:36;13.70;48.70
62809;DHT22;48848;39.002;-94.584;2022-10-17T14:23:03;13.70;48.20
62809;DHT22;48848;39.002;-94.584;2022-10-17T14:25:37;13.70;47.70
62809;DHT22;48848;39.002;-94.584;2022-10-17T14:30:38;13.70;48.70
62809;DHT22;48848;39.002;-94.584;2022-10-17T14:33:15;13.70;48.10
62809;DHT22;48848;39.002;-94.584;2022-10-17T14:35:54;13.70;48.60
62809;DHT22;48848;39.002;-94.584;2022-10-17T14:38:21;13.70;48.00
62809;DHT22;48848;39.002;-94.584;2022-10-17T14:43:25;13.70;48.00
62809;DHT22;48848;39.002;-94.584;2022-10-17T14:45:56;13.70;47.70
62809;DHT22;48848;39.002;-94.584;2022-10-17T14:48:24;13.70;46.00
62809;DHT22;48848;39.002;-94.584;2022-10-17T14:53:34;13.70;47.10
62809;DHT22;48848;39.002;-94.584;2022-10-17T14:56:24;13.70;47.10
62809;DHT22;48848;39.002;-94.584;2022-10-17T14:58:51;13.70;46.60
62809;DHT22;48848;39.002;-94.584;2022-10-17T15:01:17;13.80;46.90
62809;DHT22;48848;39.002;-94.584;2022-10-17T15:03:44;13.80;46.70
62809;DHT22;48848;39.002;-94.584;2022-10-17T15:06:28;13.80;46.40
62809;DHT22;48848;39.002;-94.584;2022-10-17T15:08:55;13.80;46.50
62809;DHT22;48848;39.002;-94.584;2022-10-17T15:11:21;13.80;46.10
62809;DHT22;48848;39.002;-94.584;2022-10-17T15:13:47;13.80;44.60
62809;DHT22;48848;39.002;-94.584;2022-10-17T15:16:24;13.80;45.20
62809;DHT22;48848;39.002;-94.584;2022-10-17T15:18:51;13.80;45.90
62809;DHT22;48848;39.002;-94.584;2022-10-17T15:21:20;13.80;46.20
62809;DHT22;48848;39.002;-94.584;2022-10-17T15:23:47;13.80;45.40
62809;DHT22;48848;39.002;-94.584;2022-10-17T15:26:28;13.80;45.50
62809;DHT22;48848;39.002;-94.584;2022-10-17T15:28:55;13.80;43.20
62809;DHT22;48848;39.002;-94.584;2022-10-17T15:31:22;13.80;45.00
62809;DHT22;48848;39.002;-94.584;2022-10-17T15:33:49;13.80;46.60
62809;DHT22;48848;39.002;-94.584;2022-10-17T15:36:32;13.90;47.50
62809;DHT22;48848;39.002;-94.584;2022-10-17T15:39:01;13.90;46.50
62809;DHT22;48848;39.002;-94.584;2022-10-17T15:41:29;13.90;46.50
62809;DHT22;48848;39.002;-94.584;2022-10-17T15:43:56;13.90;45.90
62809;DHT22;48848;39.002;-94.584;2022-10-17T15:46:31;13.90;46.10
62809;DHT22;48848;39.002;-94.584;2022-10-17T15:49:01;14.00;45.70
62809;DHT22;48848;39.002;-94.584;2022-10-17T15:51:28;14.00;43.80
62809;DHT22;48848;39.002;-94.584;2022-10-17T15:53:54;14.00;45.10
62809;DHT22;48848;39.002;-94.584;2022-10-17T15:56:33;14.00;43.70
62809;DHT22;48848;39.002;-94.584;2022-10-17T15:59:23;14.00;43.40
62809;DHT22;48848;39.002;-94.584;2022-10-17T16:01:51;14.00;42.90
62809;DHT22;48848;39.002;-94.584;2022-10-17T16:04:18;14.10;44.30
62809;DHT22;48848;39.002;-94.584;2022-10-17T16:06:44;14.10;45.20
62809;DHT22;48848;39.002;-94.584;2022-10-17T16:09:10;14.10;44.60
62809;DHT22;48848;39.002;-94.584;2022-10-17T16:11:39;14.10;43.90
62809;DHT22;48848;39.002;-94.584;2022-10-17T16:14:15;14.20;42.60
62809;DHT22;48848;39.002;-94.584;2022-10-17T16:16:43;14.20;43.70
62809;DHT22;48848;39.002;-94.584;2022-10-17T16:19:09;14.20;42.60
62809;DHT22;48848;39.002;-94.584;2022-10-17T16:21:38;14.20;44.60
62809;DHT22;48848;39.002;-94.584;2022-10-17T16:24:05;14.30;43.50
62809;DHT22;48848;39.002;-94.584;2022-10-17T16:26:31;14.30;45.10
62809;DHT22;48848;39.002;-94.584;2022-10-17T16:28:57;14.30;45.20
62809;DHT22;48848;39.002;-94.584;2022-10-17T16:31:34;14.30;46.20
62809;DHT22;48848;39.002;-94.584;2022-10-17T16:34:02;14.40;45.40
62809;DHT22;48848;39.002;-94.584;2022-10-17T16:36:28;14.40;45.20
62809;DHT22;48848;39.002;-94.584;2022-10-17T16:38:54;14.40;45.00
62809;DHT22;48848;39.002;-94.584;2022-10-17T16:41:27;14.40;43.90
62809;DHT22;48848;39.002;-94.584;2022-10-17T16:43:56;14.50;45.40
62809;DHT22;48848;39.002;-94.584;2022-10-17T16:46:24;14.50;44.30
62809;DHT22;48848;39.002;-94.584;2022-10-17T16:48:50;14.50;45.20
62809;DHT22;48848;39.002;-94.584;2022-10-17T16:51:18;14.60;45.20
62809;DHT22;48848;39.002;-94.584;2022-10-17T16:53:46;14.60;45.50
62809;DHT22;48848;39.002;-94.584;2022-10-17T16:56:17;14.60;44.50
62809;DHT22;48848;39.002;-94.584;2022-10-17T16:58:44;14.70;44.10
62809;DHT22;48848;39.002;-94.584;2022-10-17T17:01:13;14.70;43.00
62809;DHT22;48848;39.002;-94.584;2022-10-17T17:03:41;14.70;44.80
62809;DHT22;48848;39.002;-94.584;2022-10-17T17:06:12;14.70;44.00
62809;DHT22;48848;39.002;-94.584;2022-10-17T17:08:38;14.70;44.70
62809;DHT22;48848;39.002;-94.584;2022-10-17T17:11:08;14.80;44.30
62809;DHT22;48848;39.002;-94.584;2022-10-17T17:13:35;14.80;44.60
62809;DHT22;48848;39.002;-94.584;2022-10-17T17:16:12;14.80;43.20
62809;DHT22;48848;39.002;-94.584;2022-10-17T17:18:39;14.90;46.60
62809;DHT22;48848;39.002;-94.584;2022-10-17T17:21:07;15.20;46.60